sensor_id;sensor_type;location;lat;lon;timestamp;temperature;humidity
52575;DHT22;38468;48.114;-1.684;2024-03-17T00:01:27;14.80;76.50
52575;DHT22;38468;48.114;-1.684;2024-03-17T00:03:28;14.90;76.40
52575;DHT22;38468;48.114;-1.684;2024-03-17T00:05:29;14.90;76.50
52575;DHT22;38468;48.114;-1.684;2024-03-17T00:07:30;14.90;76.50
52575;DHT22;38468;48.114;-1.684;2024-03-17T00:09:30;14.80;76.70
52575;DHT22;38468;48.114;-1.684;2024-03-17T00:11:32;14.80;76.70
52575;DHT22;38468;48.114;-1.684;2024-03-17T00:13:33;14.70;76.70
52575;DHT22;38468;48.114;-1.684;2024-03-17T00:15:34;14.80;76.60
52575;DHT22;38468;48.114;-1.684;2024-03-17T00:17:34;14.70;76.60
52575;DHT22;38468;48.114;-1.684;2024-03-17T00:19:35;14.70;76.80
52575;DHT22;38468;48.114;-1.684;2024-03-17T00:21:36;14.70;76.80
52575;DHT22;38468;48.114;-1.684;2024-03-17T00:23:37;14.70;76.80
52575;DHT22;38468;48.114;-1.684;2024-03-17T00:25:38;14.60;76.90
52575;DHT22;38468;48.114;-1.684;2024-03-17T00:27:40;14.70;76.90
52575;DHT22;38468;48.114;-1.684;2024-03-17T00:29:45;14.70;77.00
52575;DHT22;38468;48.114;-1.684;2024-03-17T00:31:45;14.70;77.10
52575;DHT22;38468;48.114;-1.684;2024-03-17T00:33:46;14.60;77.00
52575;DHT22;38468;48.114;-1.684;2024-03-17T00:35:47;14.60;76.90
52575;DHT22;38468;48.114;-1.684;2024-03-17T00:37:48;14.70;77.20
52575;DHT22;38468;48.114;-1.684;2024-03-17T00:39:49;14.60;77.20
52575;DHT22;38468;48.114;-1.684;2024-03-17T00:41:50;14.60;77.20
52575;DHT22;38468;48.114;-1.684;2024-03-17T00:43:51;14.60;77.20
52575;DHT22;38468;48.114;-1.684;2024-03-17T00:45:52;14.60;77.10
52575;DHT22;38468;48.114;-1.684;2024-03-17T00:47:53;14.70;77.30
52575;DHT22;38468;48.114;-1.684;2024-03-17T00:49:54;14.70;77.30
52575;DHT22;38468;48.114;-1.684;2024-03-17T00:51:54;14.70;77.30
52575;DHT22;38468;48.114;-1.684;2024-03-17T00:53:55;14.60;77.40
52575;DHT22;38468;48.114;-1.684;2024-03-17T00:55:57;14.60;77.50
52575;DHT22;38468;48.114;-1.684;2024-03-17T00:58:01;14.60;77.70
52575;DHT22;38468;48.114;-1.684;2024-03-17T01:00:02;14.60;77.50
52575;DHT22;38468;48.114;-1.684;2024-03-17T01:02:03;14.60;77.60
52575;DHT22;38468;48.114;-1.684;2024-03-17T01:04:03;14.60;77.70
52575;DHT22;38468;48.114;-1.684;2024-03-17T01:06:04;14.50;77.90
52575;DHT22;38468;48.114;-1.684;2024-03-17T01:08:05;14.50;77.80
52575;DHT22;38468;48.114;-1.684;2024-03-17T01:10:06;14.50;77.70
52575;DHT22;38468;48.114;-1.684;2024-03-17T01:12:08;14.50;78.00
52575;DHT22;38468;48.114;-1.684;2024-03-17T01:14:09;14.50;78.00
52575;DHT22;38468;48.114;-1.684;2024-03-17T01:16:10;14.50;78.20
52575;DHT22;38468;48.114;-1.684;2024-03-17T01:18:10;14.50;78.20
52575;DHT22;38468;48.114;-1.684;2024-03-17T01:20:11;14.50;78.10
52575;DHT22;38468;48.114;-1.684;2024-03-17T01:22:12;14.50;78.00
52575;DHT22;38468;48.114;-1.684;2024-03-17T01:24:13;14.50;78.30
52575;DHT22;38468;48.114;-1.684;2024-03-17T01:26:13;14.50;78.50
52575;DHT22;38468;48.114;-1.684;2024-03-17T01:28:14;14.40;78.40
52575;DHT22;38468;48.114;-1.684;2024-03-17T01:30:14;14.50;78.30
52575;DHT22;38468;48.114;-1.684;2024-03-17T01:32:15;14.50;78.30
52575;DHT22;38468;48.114;-1.684;2024-03-17T01:34:16;14.50;78.50
52575;DHT22;38468;48.114;-1.684;2024-03-17T01:36:16;14.50;78.50
52575;DHT22;38468;48.114;-1.684;2024-03-17T01:38:17;14.50;78.60
52575;DHT22;38468;48.114;-1.684;2024-03-17T01:40:18;14.50;78.70
52575;DHT22;38468;48.114;-1.684;2024-03-17T01:42:18;14.50;78.70
52575;DHT22;38468;48.114;-1.684;2024-03-17T01:44:28;14.50;78.60
52575;DHT22;38468;48.114;-1.684;2024-03-17T01:46:29;14.50;78.60
52575;DHT22;38468;48.114;-1.684;2024-03-17T01:48:30;14.50;78.70
52575;DHT22;38468;48.114;-1.684;2024-03-17T01:50:35;14.50;78.70
52575;DHT22;38468;48.114;-1.684;2024-03-17T01:52:36;14.50;78.90
52575;DHT22;38468;48.114;-1.684;2024-03-17T01:54:37;14.50;79.20
52575;DHT22;38468;48.114;-1.684;2024-03-17T01:56:39;14.50;79.10
52575;DHT22;38468;48.114;-1.684;2024-03-17T01:58:43;14.50;79.20
52575;DHT22;38468;48.114;-1.684;2024-03-17T02:00:44;14.50;79.10
52575;DHT22;38468;48.114;-1.684;2024-03-17T02:02:45;14.50;79.10
52575;DHT22;38468;48.114;-1.684;2024-03-17T02:04:46;14.40;79.00
52575;DHT22;38468;48.114;-1.684;2024-03-17T02:06:46;14.40;79.20
52575;DHT22;38468;48.114;-1.684;2024-03-17T02:08:51;14.50;79.20
52575;DHT22;38468;48.114;-1.684;2024-03-17T02:10:55;14.50;79.40
52575;DHT22;38468;48.114;-1.684;2024-03-17T02:12:56;14.40;79.40
52575;DHT22;38468;48.114;-1.684;2024-03-17T02:15:00;14.40;79.40
52575;DHT22;38468;48.114;-1.684;2024-03-17T02:17:00;14.50;79.50
52575;DHT22;38468;48.114;-1.684;2024-03-17T02:19:01;14.40;79.40
52575;DHT22;38468;48.114;-1.684;2024-03-17T02:21:02;14.50;79.40
52575;DHT22;38468;48.114;-1.684;2024-03-17T02:23:02;14.40;79.60
52575;DHT22;38468;48.114;-1.684;2024-03-17T02:25:03;14.50;79.50
52575;DHT22;38468;48.114;-1.684;2024-03-17T02:27:05;14.50;79.50
52575;DHT22;38468;48.114;-1.684;2024-03-17T02:29:05;14.40;79.80
52575;DHT22;38468;48.114;-1.684;2024-03-17T02:31:07;14.40;79.80
52575;DHT22;38468;48.114;-1.684;2024-03-17T02:33:08;14.40;79.90
52575;DHT22;38468;48.114;-1.684;2024-03-17T02:35:09;14.40;79.90
52575;DHT22;38468;48.114;-1.684;2024-03-17T02:37:11;14.40;79.80
52575;DHT22;38468;48.114;-1.684;2024-03-17T02:39:12;14.40;79.80
52575;DHT22;38468;48.114;-1.684;2024-03-17T02:41:34;14.40;79.70
52575;DHT22;38468;48.114;-1.684;2024-03-17T02:43:35;14.40;79.80
52575;DHT22;38468;48.114;-1.684;2024-03-17T02:45:36;14.40;79.90
52575;DHT22;38468;48.114;-1.684;2024-03-17T02:47:37;14.40;79.90
52575;DHT22;38468;48.114;-1.684;2024-03-17T02:49:37;14.40;79.90
52575;DHT22;38468;48.114;-1.684;2024-03-17T02:51:39;14.40;80.00
52575;DHT22;38468;48.114;-1.684;2024-03-17T02:53:41;14.40;79.90
52575;DHT22;38468;48.114;-1.684;2024-03-17T02:55:42;14.40;80.10
52575;DHT22;38468;48.114;-1.684;2024-03-17T02:57:44;14.40;80.00
52575;DHT22;38468;48.114;-1.684;2024-03-17T02:59:44;14.40;80.40
52575;DHT22;38468;48.114;-1.684;2024-03-17T03:01:46;14.30;80.50
52575;DHT22;38468;48.114;-1.684;2024-03-17T03:03:47;14.30;80.20
52575;DHT22;38468;48.114;-1.684;2024-03-17T03:05:48;14.30;80.40
52575;DHT22;38468;48.114;-1.684;2024-03-17T03:07:49;14.30;80.40
52575;DHT22;38468;48.114;-1.684;2024-03-17T03:09:51;14.30;80.50
52575;DHT22;38468;48.114;-1.684;2024-03-17T03:11:52;14.30;80.70
52575;DHT22;38468;48.114;-1.684;2024-03-17T03:13:52;14.20;80.70
52575;DHT22;38468;48.114;-1.684;2024-03-17T03:15:53;14.30;80.80
52575;DHT22;38468;48.114;-1.684;2024-03-17T03:17:54;14.30;80.60
52575;DHT22;38468;48.114;-1.684;2024-03-17T03:19:54;14.30;80.80
52575;DHT22;38468;48.114;-1.684;2024-03-17T03:21:56;14.30;80.70
52575;DHT22;38468;48.114;-1.684;2024-03-17T03:23:56;14.30;80.70
52575;DHT22;38468;48.114;-1.684;2024-03-17T03:26:01;14.30;80.80
52575;DHT22;38468;48.114;-1.684;2024-03-17T03:28:05;14.20;80.70
52575;DHT22;38468;48.114;-1.684;2024-03-17T03:30:06;14.20;81.00
52575;DHT22;38468;48.114;-1.684;2024-03-17T03:32:09;14.20;80.90
52575;DHT22;38468;48.114;-1.684;2024-03-17T03:34:09;14.20;80.90
52575;DHT22;38468;48.114;-1.684;2024-03-17T03:36:13;14.20;81.10
52575;DHT22;38468;48.114;-1.684;2024-03-17T03:38:14;14.20;81.20
52575;DHT22;38468;48.114;-1.684;2024-03-17T03:40:15;14.10;81.20
52575;DHT22;38468;48.114;-1.684;2024-03-17T03:42:19;14.20;81.20
52575;DHT22;38468;48.114;-1.684;2024-03-17T03:44:19;14.20;81.40
52575;DHT22;38468;48.114;-1.684;2024-03-17T03:46:20;14.10;81.60
52575;DHT22;38468;48.114;-1.684;2024-03-17T03:48:21;14.10;81.50
52575;DHT22;38468;48.114;-1.684;2024-03-17T03:50:22;14.10;81.70
52575;DHT22;38468;48.114;-1.684;2024-03-17T03:52:23;14.10;81.60
52575;DHT22;38468;48.114;-1.684;2024-03-17T03:54:25;14.10;81.60
52575;DHT22;38468;48.114;-1.684;2024-03-17T03:56:26;14.10;81.80
52575;DHT22;38468;48.114;-1.684;2024-03-17T03:58:28;14.10;81.90
52575;DHT22;38468;48.114;-1.684;2024-03-17T04:00:29;14.10;81.80
52575;DHT22;38468;48.114;-1.684;2024-03-17T04:02:31;14.10;81.90
52575;DHT22;38468;48.114;-1.684;2024-03-17T04:04:34;14.10;81.70
52575;DHT22;38468;48.114;-1.684;2024-03-17T04:06:34;14.10;81.70
52575;DHT22;38468;48.114;-1.684;2024-03-17T04:08:38;14.10;81.80
52575;DHT22;38468;48.114;-1.684;2024-03-17T04:10:44;14.10;81.80
52575;DHT22;38468;48.114;-1.684;2024-03-17T04:12:44;14.10;82.10
52575;DHT22;38468;48.114;-1.684;2024-03-17T04:14:45;14.10;81.90
52575;DHT22;38468;48.114;-1.684;2024-03-17T04:16:47;14.10;81.80
52575;DHT22;38468;48.114;-1.684;2024-03-17T04:18:47;14.10;82.20
52575;DHT22;38468;48.114;-1.684;2024-03-17T04:20:48;14.10;82.10
52575;DHT22;38468;48.114;-1.684;2024-03-17T04:22:48;14.10;82.10
52575;DHT22;38468;48.114;-1.684;2024-03-17T04:24:50;14.20;82.00
52575;DHT22;38468;48.114;-1.684;2024-03-17T04:26:55;14.20;81.90
52575;DHT22;38468;48.114;-1.684;2024-03-17T04:28:55;14.10;82.30
52575;DHT22;38468;48.114;-1.684;2024-03-17T04:31:04;14.10;82.60
52575;DHT22;38468;48.114;-1.684;2024-03-17T04:33:05;14.00;82.90
52575;DHT22;38468;48.114;-1.684;2024-03-17T04:35:07;14.00;82.80
52575;DHT22;38468;48.114;-1.684;2024-03-17T04:37:07;14.00;82.70
52575;DHT22;38468;48.114;-1.684;2024-03-17T04:39:08;14.00;83.00
52575;DHT22;38468;48.114;-1.684;2024-03-17T04:41:09;14.00;83.20
52575;DHT22;38468;48.114;-1.684;2024-03-17T04:43:10;14.00;83.10
52575;DHT22;38468;48.114;-1.684;2024-03-17T04:45:10;14.00;82.90
52575;DHT22;38468;48.114;-1.684;2024-03-17T04:47:12;14.00;82.90
52575;DHT22;38468;48.114;-1.684;2024-03-17T04:49:13;14.00;82.90
52575;DHT22;38468;48.114;-1.684;2024-03-17T04:51:16;14.00;83.10
52575;DHT22;38468;48.114;-1.684;2024-03-17T04:53:17;14.00;83.00
52575;DHT22;38468;48.114;-1.684;2024-03-17T04:55:18;14.00;83.00
52575;DHT22;38468;48.114;-1.684;2024-03-17T04:57:19;14.00;83.00
52575;DHT22;38468;48.114;-1.684;2024-03-17T04:59:20;14.00;83.10
52575;DHT22;38468;48.114;-1.684;2024-03-17T05:01:25;14.00;83.20
52575;DHT22;38468;48.114;-1.684;2024-03-17T05:03:26;14.00;83.30
52575;DHT22;38468;48.114;-1.684;2024-03-17T05:05:27;14.00;83.30
52575;DHT22;38468;48.114;-1.684;2024-03-17T05:07:27;14.00;83.40
52575;DHT22;38468;48.114;-1.684;2024-03-17T05:09:28;14.00;83.40
52575;DHT22;38468;48.114;-1.684;2024-03-17T05:11:29;14.00;83.40
52575;DHT22;38468;48.114;-1.684;2024-03-17T05:13:29;14.00;83.40
52575;DHT22;38468;48.114;-1.684;2024-03-17T05:15:30;14.00;83.40
52575;DHT22;38468;48.114;-1.684;2024-03-17T05:17:30;14.00;83.60
52575;DHT22;38468;48.114;-1.684;2024-03-17T05:19:31;14.00;83.60
52575;DHT22;38468;48.114;-1.684;2024-03-17T05:21:32;14.00;83.90
52575;DHT22;38468;48.114;-1.684;2024-03-17T05:23:34;13.90;83.90
52575;DHT22;38468;48.114;-1.684;2024-03-17T05:25:35;14.00;84.00
52575;DHT22;38468;48.114;-1.684;2024-03-17T05:27:37;14.00;84.10
52575;DHT22;38468;48.114;-1.684;2024-03-17T05:29:38;14.00;84.00
52575;DHT22;38468;48.114;-1.684;2024-03-17T05:31:39;13.90;84.10
52575;DHT22;38468;48.114;-1.684;2024-03-17T05:33:39;13.90;84.00
52575;DHT22;38468;48.114;-1.684;2024-03-17T05:35:40;13.90;84.20
52575;DHT22;38468;48.114;-1.684;2024-03-17T05:37:41;13.90;84.10
52575;DHT22;38468;48.114;-1.684;2024-03-17T05:39:41;13.90;84.30
52575;DHT22;38468;48.114;-1.684;2024-03-17T05:41:42;14.00;84.30
52575;DHT22;38468;48.114;-1.684;2024-03-17T05:43:44;14.00;84.30
52575;DHT22;38468;48.114;-1.684;2024-03-17T05:45:44;13.90;84.30
52575;DHT22;38468;48.114;-1.684;2024-03-17T05:47:45;14.00;84.30
52575;DHT22;38468;48.114;-1.684;2024-03-17T05:49:46;14.00;84.10
52575;DHT22;38468;48.114;-1.684;2024-03-17T05:51:46;14.00;84.10
52575;DHT22;38468;48.114;-1.684;2024-03-17T05:53:47;13.90;84.30
52575;DHT22;38468;48.114;-1.684;2024-03-17T05:55:48;13.90;84.40
52575;DHT22;38468;48.114;-1.684;2024-03-17T05:57:48;13.90;84.30
52575;DHT22;38468;48.114;-1.684;2024-03-17T05:59:49;13.90;84.20
52575;DHT22;38468;48.114;-1.684;2024-03-17T06:01:49;13.90;84.30
52575;DHT22;38468;48.114;-1.684;2024-03-17T06:03:50;13.90;84.20
52575;DHT22;38468;48.114;-1.684;2024-03-17T06:05:51;14.00;84.10
52575;DHT22;38468;48.114;-1.684;2024-03-17T06:07:51;14.00;84.30
52575;DHT22;38468;48.114;-1.684;2024-03-17T06:09:52;14.00;84.30
52575;DHT22;38468;48.114;-1.684;2024-03-17T06:11:52;14.00;84.40
52575;DHT22;38468;48.114;-1.684;2024-03-17T06:14:08;13.90;84.50
52575;DHT22;38468;48.114;-1.684;2024-03-17T06:16:12;13.90;84.70
52575;DHT22;38468;48.114;-1.684;2024-03-17T06:18:16;13.80;84.90
52575;DHT22;38468;48.114;-1.684;2024-03-17T06:20:19;13.80;85.00
52575;DHT22;38468;48.114;-1.684;2024-03-17T06:22:20;13.80;84.90
52575;DHT22;38468;48.114;-1.684;2024-03-17T06:24:20;13.80;85.10
52575;DHT22;38468;48.114;-1.684;2024-03-17T06:26:21;13.90;85.10
52575;DHT22;38468;48.114;-1.684;2024-03-17T06:28:22;13.90;85.00
52575;DHT22;38468;48.114;-1.684;2024-03-17T06:30:23;13.90;84.90
52575;DHT22;38468;48.114;-1.684;2024-03-17T06:32:23;13.90;85.00
52575;DHT22;38468;48.114;-1.684;2024-03-17T06:34:24;13.90;85.00
52575;DHT22;38468;48.114;-1.684;2024-03-17T06:36:25;13.90;84.90
52575;DHT22;38468;48.114;-1.684;2024-03-17T06:38:26;13.90;84.90
52575;DHT22;38468;48.114;-1.684;2024-03-17T06:40:26;14.00;84.80
52575;DHT22;38468;48.114;-1.684;2024-03-17T06:42:27;14.00;84.70
52575;DHT22;38468;48.114;-1.684;2024-03-17T06:44:27;14.00;84.70
52575;DHT22;38468;48.114;-1.684;2024-03-17T06:46:30;14.00;84.80
52575;DHT22;38468;48.114;-1.684;2024-03-17T06:48:31;14.00;84.70
52575;DHT22;38468;48.114;-1.684;2024-03-17T06:50:33;14.00;84.90
52575;DHT22;38468;48.114;-1.684;2024-03-17T06:52:33;14.00;84.80
52575;DHT22;38468;48.114;-1.684;2024-03-17T06:54:34;14.00;84.80
52575;DHT22;38468;48.114;-1.684;2024-03-17T06:56:36;14.00;84.90
52575;DHT22;38468;48.114;-1.684;2024-03-17T06:58:38;14.00;85.00
52575;DHT22;38468;48.114;-1.684;2024-03-17T07:00:41;14.00;85.00
52575;DHT22;38468;48.114;-1.684;2024-03-17T07:02:44;14.00;84.90
52575;DHT22;38468;48.114;-1.684;2024-03-17T07:04:48;14.00;85.00
52575;DHT22;38468;48.114;-1.684;2024-03-17T07:06:48;14.00;85.00
52575;DHT22;38468;48.114;-1.684;2024-03-17T07:08:50;14.00;84.90
52575;DHT22;38468;48.114;-1.684;2024-03-17T07:11:05;14.00;84.90
52575;DHT22;38468;48.114;-1.684;2024-03-17T07:13:07;14.00;84.70
52575;DHT22;38468;48.114;-1.684;2024-03-17T07:15:08;14.00;84.60
52575;DHT22;38468;48.114;-1.684;2024-03-17T07:17:09;14.10;84.60
52575;DHT22;38468;48.114;-1.684;2024-03-17T07:19:12;14.10;84.60
52575;DHT22;38468;48.114;-1.684;2024-03-17T07:21:12;14.10;84.80
52575;DHT22;38468;48.114;-1.684;2024-03-17T07:23:14;14.10;84.80
52575;DHT22;38468;48.114;-1.684;2024-03-17T07:25:16;14.10;84.90
52575;DHT22;38468;48.114;-1.684;2024-03-17T07:27:16;14.00;84.90
52575;DHT22;38468;48.114;-1.684;2024-03-17T07:29:17;14.00;84.90
52575;DHT22;38468;48.114;-1.684;2024-03-17T07:31:21;14.10;84.90
52575;DHT22;38468;48.114;-1.684;2024-03-17T07:33:23;14.10;85.00
52575;DHT22;38468;48.114;-1.684;2024-03-17T07:35:23;14.00;85.00
52575;DHT22;38468;48.114;-1.684;2024-03-17T07:37:24;14.10;85.10
52575;DHT22;38468;48.114;-1.684;2024-03-17T07:39:25;14.10;85.10
52575;DHT22;38468;48.114;-1.684;2024-03-17T07:41:27;14.10;85.10
52575;DHT22;38468;48.114;-1.684;2024-03-17T07:43:28;14.10;85.10
52575;DHT22;38468;48.114;-1.684;2024-03-17T07:45:29;14.10;85.10
52575;DHT22;38468;48.114;-1.684;2024-03-17T07:47:30;14.10;85.10
52575;DHT22;38468;48.114;-1.684;2024-03-17T07:49:36;14.10;85.20
52575;DHT22;38468;48.114;-1.684;2024-03-17T07:51:36;14.10;85.20
52575;DHT22;38468;48.114;-1.684;2024-03-17T07:53:38;14.10;85.20
52575;DHT22;38468;48.114;-1.684;2024-03-17T07:55:38;14.20;85.20
52575;DHT22;38468;48.114;-1.684;2024-03-17T07:57:39;14.10;85.20
52575;DHT22;38468;48.114;-1.684;2024-03-17T07:59:41;14.20;85.30
52575;DHT22;38468;48.114;-1.684;2024-03-17T08:01:43;14.20;85.40
52575;DHT22;38468;48.114;-1.684;2024-03-17T08:03:46;14.20;85.40
52575;DHT22;38468;48.114;-1.684;2024-03-17T08:05:50;14.20;85.40
52575;DHT22;38468;48.114;-1.684;2024-03-17T08:07:51;14.20;85.40
52575;DHT22;38468;48.114;-1.684;2024-03-17T08:09:52;14.20;85.40
52575;DHT22;38468;48.114;-1.684;2024-03-17T08:11:53;14.20;85.50
52575;DHT22;38468;48.114;-1.684;2024-03-17T08:13:54;14.20;85.40
52575;DHT22;38468;48.114;-1.684;2024-03-17T08:16:00;14.30;85.30
52575;DHT22;38468;48.114;-1.684;2024-03-17T08:18:01;14.40;85.30
52575;DHT22;38468;48.114;-1.684;2024-03-17T08:20:01;14.40;85.30
52575;DHT22;38468;48.114;-1.684;2024-03-17T08:22:02;14.40;85.20
52575;DHT22;38468;48.114;-1.684;2024-03-17T08:24:03;14.40;85.20
52575;DHT22;38468;48.114;-1.684;2024-03-17T08:26:04;14.40;85.20
52575;DHT22;38468;48.114;-1.684;2024-03-17T08:28:07;14.40;85.10
52575;DHT22;38468;48.114;-1.684;2024-03-17T08:30:09;14.40;85.30
52575;DHT22;38468;48.114;-1.684;2024-03-17T08:32:13;14.40;85.30
52575;DHT22;38468;48.114;-1.684;2024-03-17T08:34:15;14.50;85.10
52575;DHT22;38468;48.114;-1.684;2024-03-17T08:36:18;14.50;85.10
52575;DHT22;38468;48.114;-1.684;2024-03-17T08:38:19;14.50;85.10
52575;DHT22;38468;48.114;-1.684;2024-03-17T08:40:20;14.50;85.00
52575;DHT22;38468;48.114;-1.684;2024-03-17T08:42:23;14.50;85.00
52575;DHT22;38468;48.114;-1.684;2024-03-17T08:44:23;14.50;84.90
52575;DHT22;38468;48.114;-1.684;2024-03-17T08:46:24;14.60;84.90
52575;DHT22;38468;48.114;-1.684;2024-03-17T08:48:25;14.60;84.90
52575;DHT22;38468;48.114;-1.684;2024-03-17T08:50:26;14.60;85.00
52575;DHT22;38468;48.114;-1.684;2024-03-17T08:52:27;14.60;84.90
52575;DHT22;38468;48.114;-1.684;2024-03-17T08:54:27;14.70;84.90
52575;DHT22;38468;48.114;-1.684;2024-03-17T08:56:28;14.70;85.00
52575;DHT22;38468;48.114;-1.684;2024-03-17T08:58:29;14.70;85.00
52575;DHT22;38468;48.114;-1.684;2024-03-17T09:00:29;14.70;85.00
52575;DHT22;38468;48.114;-1.684;2024-03-17T09:02:32;14.70;85.00
52575;DHT22;38468;48.114;-1.684;2024-03-17T09:04:33;14.70;84.90
52575;DHT22;38468;48.114;-1.684;2024-03-17T09:06:33;14.70;84.90
52575;DHT22;38468;48.114;-1.684;2024-03-17T09:08:35;14.70;84.90
52575;DHT22;38468;48.114;-1.684;2024-03-17T09:10:42;14.80;84.90
52575;DHT22;38468;48.114;-1.684;2024-03-17T09:12:43;14.80;84.90
52575;DHT22;38468;48.114;-1.684;2024-03-17T09:14:47;14.80;84.90
52575;DHT22;38468;48.114;-1.684;2024-03-17T09:16:48;14.80;84.90
52575;DHT22;38468;48.114;-1.684;2024-03-17T09:18:49;14.90;84.90
52575;DHT22;38468;48.114;-1.684;2024-03-17T09:21:01;14.90;84.80
52575;DHT22;38468;48.114;-1.684;2024-03-17T09:23:02;14.90;84.80
52575;DHT22;38468;48.114;-1.684;2024-03-17T09:25:05;15.00;84.80
52575;DHT22;38468;48.114;-1.684;2024-03-17T09:27:07;15.00;84.80
52575;DHT22;38468;48.114;-1.684;2024-03-17T09:29:08;15.00;84.80
52575;DHT22;38468;48.114;-1.684;2024-03-17T09:31:10;15.00;84.80
52575;DHT22;38468;48.114;-1.684;2024-03-17T09:33:11;15.00;84.80
52575;DHT22;38468;48.114;-1.684;2024-03-17T09:35:12;15.00;84.70
52575;DHT22;38468;48.114;-1.684;2024-03-17T09:37:13;15.00;84.70
52575;DHT22;38468;48.114;-1.684;2024-03-17T09:39:14;15.10;84.70
52575;DHT22;38468;48.114;-1.684;2024-03-17T09:41:21;15.10;84.70
52575;DHT22;38468;48.114;-1.684;2024-03-17T09:43:26;15.10;84.70
52575;DHT22;38468;48.114;-1.684;2024-03-17T09:45:27;15.10;84.60
52575;DHT22;38468;48.114;-1.684;2024-03-17T09:47:29;15.20;84.70
52575;DHT22;38468;48.114;-1.684;2024-03-17T09:49:30;15.20;84.70
52575;DHT22;38468;48.114;-1.684;2024-03-17T09:51:31;15.30;84.70
52575;DHT22;38468;48.114;-1.684;2024-03-17T09:53:33;15.30;84.70
52575;DHT22;38468;48.114;-1.684;2024-03-17T09:55:34;15.30;84.70
52575;DHT22;38468;48.114;-1.684;2024-03-17T09:57:36;15.40;84.70
52575;DHT22;38468;48.114;-1.684;2024-03-17T09:59:37;15.40;84.60
52575;DHT22;38468;48.114;-1.684;2024-03-17T10:01:37;15.40;84.60
52575;DHT22;38468;48.114;-1.684;2024-03-17T10:03:46;15.40;84.60
52575;DHT22;38468;48.114;-1.684;2024-03-17T10:05:59;15.40;84.60
52575;DHT22;38468;48.114;-1.684;2024-03-17T10:08:00;15.40;84.60
52575;DHT22;38468;48.114;-1.684;2024-03-17T10:10:11;15.40;84.60
52575;DHT22;38468;48.114;-1.684;2024-03-17T10:12:29;15.50;84.70
52575;DHT22;38468;48.114;-1.684;2024-03-17T10:14:30;15.50;84.60
52575;DHT22;38468;48.114;-1.684;2024-03-17T10:16:32;15.50;84.70
52575;DHT22;38468;48.114;-1.684;2024-03-17T10:18:33;15.50;84.60
52575;DHT22;38468;48.114;-1.684;2024-03-17T10:20:34;15.50;84.60
52575;DHT22;38468;48.114;-1.684;2024-03-17T10:22:34;15.50;84.60
52575;DHT22;38468;48.114;-1.684;2024-03-17T10:24:35;15.60;84.50
52575;DHT22;38468;48.114;-1.684;2024-03-17T10:26:47;15.70;84.60
52575;DHT22;38468;48.114;-1.684;2024-03-17T10:28:47;15.70;84.60
52575;DHT22;38468;48.114;-1.684;2024-03-17T10:31:00;15.70;84.50
52575;DHT22;38468;48.114;-1.684;2024-03-17T10:33:01;15.70;84.40
52575;DHT22;38468;48.114;-1.684;2024-03-17T10:35:02;15.80;84.30
52575;DHT22;38468;48.114;-1.684;2024-03-17T10:37:14;15.80;84.40
52575;DHT22;38468;48.114;-1.684;2024-03-17T10:39:26;15.90;84.30
52575;DHT22;38468;48.114;-1.684;2024-03-17T10:41:30;16.00;83.90
52575;DHT22;38468;48.114;-1.684;2024-03-17T10:43:33;16.00;83.80
52575;DHT22;38468;48.114;-1.684;2024-03-17T10:45:36;16.10;83.80
52575;DHT22;38468;48.114;-1.684;2024-03-17T10:47:47;16.10;83.20
52575;DHT22;38468;48.114;-1.684;2024-03-17T10:49:51;16.20;83.20
52575;DHT22;38468;48.114;-1.684;2024-03-17T10:51:57;16.20;82.30
52575;DHT22;38468;48.114;-1.684;2024-03-17T10:53:59;16.30;82.60
52575;DHT22;38468;48.114;-1.684;2024-03-17T10:56:11;16.30;82.60
52575;DHT22;38468;48.114;-1.684;2024-03-17T10:58:38;16.30;82.50
52575;DHT22;38468;48.114;-1.684;2024-03-17T11:00:42;16.30;81.90
52575;DHT22;38468;48.114;-1.684;2024-03-17T11:02:45;16.40;82.20
52575;DHT22;38468;48.114;-1.684;2024-03-17T11:04:46;16.50;82.60
52575;DHT22;38468;48.114;-1.684;2024-03-17T11:06:47;16.50;82.70
52575;DHT22;38468;48.114;-1.684;2024-03-17T11:08:48;16.40;81.20
52575;DHT22;38468;48.114;-1.684;2024-03-17T11:10:51;16.50;81.30
52575;DHT22;38468;48.114;-1.684;2024-03-17T11:13:02;16.50;81.60
52575;DHT22;38468;48.114;-1.684;2024-03-17T11:15:35;16.50;81.60
52575;DHT22;38468;48.114;-1.684;2024-03-17T11:17:40;16.50;81.50
52575;DHT22;38468;48.114;-1.684;2024-03-17T11:19:41;16.50;81.90
52575;DHT22;38468;48.114;-1.684;2024-03-17T11:21:42;16.60;81.80
52575;DHT22;38468;48.114;-1.684;2024-03-17T11:24:03;16.50;81.70
52575;DHT22;38468;48.114;-1.684;2024-03-17T11:26:05;16.50;81.90
52575;DHT22;38468;48.114;-1.684;2024-03-17T11:28:07;16.60;82.10
52575;DHT22;38468;48.114;-1.684;2024-03-17T11:31:02;16.60;81.70
52575;DHT22;38468;48.114;-1.684;2024-03-17T11:35:31;16.60;81.60
52575;DHT22;38468;48.114;-1.684;2024-03-17T11:37:42;16.60;81.70
52575;DHT22;38468;48.114;-1.684;2024-03-17T11:39:54;16.60;81.40
52575;DHT22;38468;48.114;-1.684;2024-03-17T11:42:05;16.60;81.60
52575;DHT22;38468;48.114;-1.684;2024-03-17T11:44:15;16.70;81.60
52575;DHT22;38468;48.114;-1.684;2024-03-17T11:46:16;16.60;81.00
52575;DHT22;38468;48.114;-1.684;2024-03-17T11:48:16;16.60;80.60
52575;DHT22;38468;48.114;-1.684;2024-03-17T11:50:17;16.70;80.60
52575;DHT22;38468;48.114;-1.684;2024-03-17T11:52:19;16.60;80.80
52575;DHT22;38468;48.114;-1.684;2024-03-17T11:54:25;16.50;80.70
52575;DHT22;38468;48.114;-1.684;2024-03-17T11:56:27;16.50;80.80
52575;DHT22;38468;48.114;-1.684;2024-03-17T11:58:30;16.50;80.50
52575;DHT22;38468;48.114;-1.684;2024-03-17T12:00:31;16.50;80.30
52575;DHT22;38468;48.114;-1.684;2024-03-17T12:02:32;16.50;80.20
52575;DHT22;38468;48.114;-1.684;2024-03-17T12:04:39;16.50;80.60
52575;DHT22;38468;48.114;-1.684;2024-03-17T12:06:48;16.50;80.40
52575;DHT22;38468;48.114;-1.684;2024-03-17T12:08:48;16.40;79.80
52575;DHT22;38468;48.114;-1.684;2024-03-17T12:10:49;16.40;80.00
52575;DHT22;38468;48.114;-1.684;2024-03-17T12:12:50;16.40;80.40
52575;DHT22;38468;48.114;-1.684;2024-03-17T12:14:51;16.40;80.40
52575;DHT22;38468;48.114;-1.684;2024-03-17T12:16:56;16.40;80.40
52575;DHT22;38468;48.114;-1.684;2024-03-17T12:19:08;16.40;80.40
52575;DHT22;38468;48.114;-1.684;2024-03-17T12:21:13;16.50;80.60
52575;DHT22;38468;48.114;-1.684;2024-03-17T12:23:15;16.40;80.50
52575;DHT22;38468;48.114;-1.684;2024-03-17T12:25:21;16.40;80.50
52575;DHT22;38468;48.114;-1.684;2024-03-17T12:27:25;16.40;80.20
52575;DHT22;38468;48.114;-1.684;2024-03-17T12:29:36;16.40;80.10
52575;DHT22;38468;48.114;-1.684;2024-03-17T12:31:40;16.40;80.50
52575;DHT22;38468;48.114;-1.684;2024-03-17T12:33:41;16.50;80.20
52575;DHT22;38468;48.114;-1.684;2024-03-17T12:35:45;16.50;80.00
52575;DHT22;38468;48.114;-1.684;2024-03-17T12:37:46;16.40;79.80
52575;DHT22;38468;48.114;-1.684;2024-03-17T12:39:47;16.50;80.10
52575;DHT22;38468;48.114;-1.684;2024-03-17T12:42:12;16.50;80.30
52575;DHT22;38468;48.114;-1.684;2024-03-17T12:44:23;16.60;80.50